sensor_id;sensor_type;location;lat;lon;timestamp;pressure;altitude;pressure_sealevel;temperature;humidity
12536;BME280;6334;48.696;2.114;2023-03-15T00:01:31;100006.42;;;4.88;72.83
12536;BME280;6334;48.696;2.114;2023-03-15T00:04:02;100004.38;;;5.45;71.56
12536;BME280;6334;48.696;2.114;2023-03-15T00:06:33;100008.09;;;5.00;73.02
12536;BME280;6334;48.696;2.114;2023-03-15T00:09:03;100004.77;;;4.69;73.55
12536;BME280;6334;48.696;2.114;2023-03-15T00:11:33;100007.45;;;4.95;72.13
12536;BME280;6334;48.696;2.114;2023-03-15T00:14:04;100005.44;;;5.08;71.96
12536;BME280;6334;48.696;2.114;2023-03-15T00:16:35;100006.77;;;5.35;71.36
12536;BME280;6334;48.696;2.114;2023-03-15T00:19:06;100006.86;;;5.09;72.53
12536;BME280;6334;48.696;2.114;2023-03-15T00:21:37;100007.81;;;5.06;71.21
12536;BME280;6334;48.696;2.114;2023-03-15T00:24:11;100012.95;;;4.92;72.25
12536;BME280;6334;48.696;2.114;2023-03-15T00:26:41;100014.53;;;5.20;70.71
12536;BME280;6334;48.696;2.114;2023-03-15T00:29:15;100014.03;;;5.69;70.65
12536;BME280;6334;48.696;2.114;2023-03-15T00:31:48;100016.23;;;5.05;70.76
12536;BME280;6334;48.696;2.114;2023-03-15T00:34:19;100016.52;;;5.47;69.94
12536;BME280;6334;48.696;2.114;2023-03-15T00:36:50;100014.57;;;5.13;71.66
12536;BME280;6334;48.696;2.114;2023-03-15T00:39:21;100018.42;;;5.37;70.45
12536;BME280;6334;48.696;2.114;2023-03-15T00:41:51;100013.41;;;5.14;70.94
12536;BME280;6334;48.696;2.114;2023-03-15T00:44:24;100021.94;;;5.01;71.44
12536;BME280;6334;48.696;2.114;2023-03-15T00:46:56;100023.89;;;5.16;71.01
12536;BME280;6334;48.696;2.114;2023-03-15T00:49:26;100020.02;;;4.84;71.88
12536;BME280;6334;48.696;2.114;2023-03-15T00:51:57;100025.09;;;4.95;71.12
12536;BME280;6334;48.696;2.114;2023-03-15T00:54:27;100029.67;;;4.98;71.26
12536;BME280;6334;48.696;2.114;2023-03-15T00:57:01;100025.71;;;4.91;71.71
12536;BME280;6334;48.696;2.114;2023-03-15T00:59:31;100029.81;;;4.96;71.77
12536;BME280;6334;48.696;2.114;2023-03-15T01:02:02;100032.84;;;4.72;71.79
12536;BME280;6334;48.696;2.114;2023-03-15T01:04:32;100029.42;;;4.55;72.75
12536;BME280;6334;48.696;2.114;2023-03-15T01:07:03;100030.63;;;4.46;73.29
12536;BME280;6334;48.696;2.114;2023-03-15T01:09:33;100029.23;;;4.74;72.61
12536;BME280;6334;48.696;2.114;2023-03-15T01:12:03;100028.25;;;4.82;72.18
12536;BME280;6334;48.696;2.114;2023-03-15T01:14:34;100035.70;;;5.00;71.27
12536;BME280;6334;48.696;2.114;2023-03-15T01:17:04;100038.23;;;4.81;71.00
12536;BME280;6334;48.696;2.114;2023-03-15T01:19:34;100033.11;;;4.74;71.14
12536;BME280;6334;48.696;2.114;2023-03-15T01:22:05;100035.54;;;4.70;72.05
12536;BME280;6334;48.696;2.114;2023-03-15T01:24:35;100032.30;;;4.99;70.59
12536;BME280;6334;48.696;2.114;2023-03-15T01:27:06;100032.87;;;5.14;70.57
12536;BME280;6334;48.696;2.114;2023-03-15T01:29:36;100030.03;;;4.88;70.80
12536;BME280;6334;48.696;2.114;2023-03-15T01:32:07;100034.39;;;4.93;70.82
12536;BME280;6334;48.696;2.114;2023-03-15T01:34:37;100033.45;;;4.48;72.86
12536;BME280;6334;48.696;2.114;2023-03-15T01:37:08;100030.78;;;4.59;71.60
12536;BME280;6334;48.696;2.114;2023-03-15T01:39:41;100041.47;;;4.49;72.02
12536;BME280;6334;48.696;2.114;2023-03-15T01:42:11;100044.84;;;4.36;72.48
12536;BME280;6334;48.696;2.114;2023-03-15T01:44:57;100043.52;;;4.75;71.87
12536;BME280;6334;48.696;2.114;2023-03-15T01:47:26;100041.19;;;4.04;73.85
12536;BME280;6334;48.696;2.114;2023-03-15T01:50:04;100044.34;;;4.37;72.09
12536;BME280;6334;48.696;2.114;2023-03-15T01:52:33;100046.60;;;4.32;72.31
12536;BME280;6334;48.696;2.114;2023-03-15T01:57:50;100046.56;;;4.75;71.39
12536;BME280;6334;48.696;2.114;2023-03-15T02:00:17;100045.33;;;4.92;71.04
12536;BME280;6334;48.696;2.114;2023-03-15T02:02:55;100054.95;;;4.42;72.14
12536;BME280;6334;48.696;2.114;2023-03-15T02:05:25;100046.44;;;4.46;72.33
12536;BME280;6334;48.696;2.114;2023-03-15T02:07:54;100031.38;;;4.35;71.70
12536;BME280;6334;48.696;2.114;2023-03-15T02:10:36;100045.50;;;4.63;71.59
12536;BME280;6334;48.696;2.114;2023-03-15T02:13:04;100042.12;;;4.31;72.88
12536;BME280;6334;48.696;2.114;2023-03-15T02:15:34;100037.64;;;4.89;70.76
12536;BME280;6334;48.696;2.114;2023-03-15T02:18:06;100043.25;;;4.73;70.80
12536;BME280;6334;48.696;2.114;2023-03-15T02:23:17;100030.08;;;4.55;70.77
12536;BME280;6334;48.696;2.114;2023-03-15T02:28:28;100037.78;;;4.13;72.67
12536;BME280;6334;48.696;2.114;2023-03-15T02:30:59;100038.86;;;4.45;72.57
12536;BME280;6334;48.696;2.114;2023-03-15T02:33:45;100037.96;;;4.26;71.80
12536;BME280;6334;48.696;2.114;2023-03-15T02:36:20;100039.22;;;4.43;71.76
12536;BME280;6334;48.696;2.114;2023-03-15T02:38:50;100041.38;;;4.12;72.35
12536;BME280;6334;48.696;2.114;2023-03-15T02:41:24;100039.59;;;4.72;70.81
12536;BME280;6334;48.696;2.114;2023-03-15T02:43:54;100036.55;;;4.32;71.59
12536;BME280;6334;48.696;2.114;2023-03-15T02:46:24;100031.33;;;3.89;72.69
12536;BME280;6334;48.696;2.114;2023-03-15T02:48:55;100031.81;;;4.23;72.80
12536;BME280;6334;48.696;2.114;2023-03-15T02:51:26;100029.59;;;4.17;72.44
12536;BME280;6334;48.696;2.114;2023-03-15T02:53:56;100034.32;;;3.86;72.25
12536;BME280;6334;48.696;2.114;2023-03-15T02:56:26;100033.31;;;4.30;71.87
12536;BME280;6334;48.696;2.114;2023-03-15T02:58:56;100031.52;;;4.33;71.91
12536;BME280;6334;48.696;2.114;2023-03-15T03:01:27;100036.37;;;3.39;75.03
12536;BME280;6334;48.696;2.114;2023-03-15T03:03:57;100034.67;;;4.16;72.12
12536;BME280;6334;48.696;2.114;2023-03-15T03:06:28;100035.00;;;4.10;71.95
12536;BME280;6334;48.696;2.114;2023-03-15T03:08:58;100039.77;;;4.21;72.86
12536;BME280;6334;48.696;2.114;2023-03-15T03:11:29;100041.12;;;4.68;70.92
12536;BME280;6334;48.696;2.114;2023-03-15T03:13:59;100045.75;;;4.49;72.21
12536;BME280;6334;48.696;2.114;2023-03-15T03:16:30;100051.87;;;4.33;71.23
12536;BME280;6334;48.696;2.114;2023-03-15T03:19:00;100050.87;;;4.33;72.06
12536;BME280;6334;48.696;2.114;2023-03-15T03:21:31;100043.42;;;4.24;71.83
12536;BME280;6334;48.696;2.114;2023-03-15T03:24:01;100050.08;;;4.54;70.91
12536;BME280;6334;48.696;2.114;2023-03-15T03:26:31;100028.55;;;4.25;72.14
12536;BME280;6334;48.696;2.114;2023-03-15T03:29:02;100052.29;;;4.46;71.03
12536;BME280;6334;48.696;2.114;2023-03-15T03:31:32;100054.84;;;4.15;72.11
12536;BME280;6334;48.696;2.114;2023-03-15T03:34:03;100052.11;;;4.51;71.19
12536;BME280;6334;48.696;2.114;2023-03-15T03:36:33;100046.81;;;4.50;70.92
12536;BME280;6334;48.696;2.114;2023-03-15T03:39:04;100055.98;;;4.37;71.76
12536;BME280;6334;48.696;2.114;2023-03-15T03:41:34;100056.88;;;4.38;70.96
12536;BME280;6334;48.696;2.114;2023-03-15T03:44:05;100059.33;;;4.55;70.18
12536;BME280;6334;48.696;2.114;2023-03-15T03:46:35;100065.22;;;4.28;71.57
12536;BME280;6334;48.696;2.114;2023-03-15T03:49:06;100064.44;;;4.41;70.51
12536;BME280;6334;48.696;2.114;2023-03-15T03:51:36;100063.36;;;4.37;71.78
12536;BME280;6334;48.696;2.114;2023-03-15T03:54:06;100060.80;;;4.13;71.43
12536;BME280;6334;48.696;2.114;2023-03-15T03:56:37;100068.80;;;4.43;71.92
12536;BME280;6334;48.696;2.114;2023-03-15T03:59:07;100068.48;;;4.25;70.98
12536;BME280;6334;48.696;2.114;2023-03-15T04:01:38;100072.95;;;4.32;71.01
12536;BME280;6334;48.696;2.114;2023-03-15T04:04:08;100077.61;;;4.37;71.20
12536;BME280;6334;48.696;2.114;2023-03-15T04:06:40;100081.03;;;4.16;71.40
12536;BME280;6334;48.696;2.114;2023-03-15T04:09:12;100084.95;;;4.03;72.15
12536;BME280;6334;48.696;2.114;2023-03-15T04:11:41;100084.39;;;3.94;72.58
12536;BME280;6334;48.696;2.114;2023-03-15T04:14:12;100088.08;;;4.25;71.88
12536;BME280;6334;48.696;2.114;2023-03-15T04:16:42;100096.38;;;3.92;72.68
12536;BME280;6334;48.696;2.114;2023-03-15T04:19:13;100093.20;;;4.05;71.69
12536;BME280;6334;48.696;2.114;2023-03-15T04:21:43;100091.73;;;3.78;72.55
12536;BME280;6334;48.696;2.114;2023-03-15T04:24:14;100092.89;;;3.68;73.09
12536;BME280;6334;48.696;2.114;2023-03-15T04:26:45;100089.66;;;3.63;73.49
12536;BME280;6334;48.696;2.114;2023-03-15T04:29:16;100087.70;;;4.10;72.59
12536;BME280;6334;48.696;2.114;2023-03-15T04:31:46;100081.69;;;3.63;73.17
12536;BME280;6334;48.696;2.114;2023-03-15T04:34:17;100079.91;;;4.00;72.96
12536;BME280;6334;48.696;2.114;2023-03-15T04:36:47;100083.64;;;3.87;73.13
12536;BME280;6334;48.696;2.114;2023-03-15T04:39:19;100075.87;;;3.50;74.19
12536;BME280;6334;48.696;2.114;2023-03-15T04:41:49;100076.09;;;3.84;72.80
12536;BME280;6334;48.696;2.114;2023-03-15T04:44:20;100076.36;;;3.94;72.80
12536;BME280;6334;48.696;2.114;2023-03-15T04:46:51;100057.75;;;3.68;72.73
12536;BME280;6334;48.696;2.114;2023-03-15T04:49:21;100084.45;;;3.62;73.52
12536;BME280;6334;48.696;2.114;2023-03-15T04:51:51;100088.84;;;3.98;72.38
12536;BME280;6334;48.696;2.114;2023-03-15T04:54:22;100089.08;;;3.87;72.56
12536;BME280;6334;48.696;2.114;2023-03-15T04:56:52;100088.19;;;3.53;73.61
12536;BME280;6334;48.696;2.114;2023-03-15T04:59:23;100093.53;;;3.43;73.95
12536;BME280;6334;48.696;2.114;2023-03-15T05:01:53;100088.96;;;4.06;72.43
12536;BME280;6334;48.696;2.114;2023-03-15T05:04:24;100088.48;;;3.70;73.49
12536;BME280;6334;48.696;2.114;2023-03-15T05:06:54;100093.34;;;3.51;73.76
12536;BME280;6334;48.696;2.114;2023-03-15T05:09:24;100094.77;;;3.72;73.67
12536;BME280;6334;48.696;2.114;2023-03-15T05:11:55;100093.82;;;3.71;73.60
12536;BME280;6334;48.696;2.114;2023-03-15T05:14:25;100105.95;;;3.72;72.80
12536;BME280;6334;48.696;2.114;2023-03-15T05:16:56;100109.78;;;4.02;72.84
12536;BME280;6334;48.696;2.114;2023-03-15T05:19:27;100108.91;;;3.83;72.82
12536;BME280;6334;48.696;2.114;2023-03-15T05:21:57;100110.96;;;3.58;73.88
12536;BME280;6334;48.696;2.114;2023-03-15T05:24:27;100111.73;;;3.27;75.03
12536;BME280;6334;48.696;2.114;2023-03-15T05:26:58;100108.40;;;3.75;72.91
12536;BME280;6334;48.696;2.114;2023-03-15T05:29:28;100110.39;;;3.63;73.85
12536;BME280;6334;48.696;2.114;2023-03-15T05:31:59;100111.23;;;3.32;74.07
12536;BME280;6334;48.696;2.114;2023-03-15T05:34:30;100105.15;;;3.41;74.36
12536;BME280;6334;48.696;2.114;2023-03-15T05:37:00;100092.20;;;3.57;73.22
12536;BME280;6334;48.696;2.114;2023-03-15T05:39:30;100100.67;;;3.83;72.14
12536;BME280;6334;48.696;2.114;2023-03-15T05:42:00;100109.24;;;3.36;73.30
12536;BME280;6334;48.696;2.114;2023-03-15T05:44:31;100094.52;;;3.93;72.82
12536;BME280;6334;48.696;2.114;2023-03-15T05:47:01;100100.27;;;3.72;73.62
12536;BME280;6334;48.696;2.114;2023-03-15T05:49:32;100107.00;;;3.17;74.82
12536;BME280;6334;48.696;2.114;2023-03-15T05:52:02;100112.56;;;3.47;74.43
12536;BME280;6334;48.696;2.114;2023-03-15T05:54:34;100112.53;;;3.53;73.21
12536;BME280;6334;48.696;2.114;2023-03-15T05:57:05;100115.67;;;3.32;74.25
12536;BME280;6334;48.696;2.114;2023-03-15T05:59:36;100116.97;;;3.36;73.94
12536;BME280;6334;48.696;2.114;2023-03-15T06:02:07;100126.41;;;3.70;73.53
12536;BME280;6334;48.696;2.114;2023-03-15T06:04:37;100123.69;;;3.61;73.37
12536;BME280;6334;48.696;2.114;2023-03-15T06:07:08;100126.88;;;3.24;74.76
12536;BME280;6334;48.696;2.114;2023-03-15T06:09:38;100128.72;;;3.85;73.30
12536;BME280;6334;48.696;2.114;2023-03-15T06:12:08;100132.76;;;3.68;73.25
12536;BME280;6334;48.696;2.114;2023-03-15T06:14:39;100130.02;;;3.96;73.25
12536;BME280;6334;48.696;2.114;2023-03-15T06:17:09;100133.25;;;3.34;74.37
12536;BME280;6334;48.696;2.114;2023-03-15T06:19:40;100123.19;;;3.33;74.32
12536;BME280;6334;48.696;2.114;2023-03-15T06:22:10;100130.98;;;3.50;73.95
12536;BME280;6334;48.696;2.114;2023-03-15T06:24:41;100126.69;;;3.53;74.63
12536;BME280;6334;48.696;2.114;2023-03-15T06:27:11;100141.52;;;3.60;72.97
12536;BME280;6334;48.696;2.114;2023-03-15T06:29:42;100138.20;;;3.54;73.74
12536;BME280;6334;48.696;2.114;2023-03-15T06:32:12;100141.64;;;3.67;73.47
12536;BME280;6334;48.696;2.114;2023-03-15T06:34:43;100143.55;;;3.64;74.39
12536;BME280;6334;48.696;2.114;2023-03-15T06:37:13;100143.48;;;3.49;75.35
12536;BME280;6334;48.696;2.114;2023-03-15T06:39:44;100137.69;;;3.23;75.33
12536;BME280;6334;48.696;2.114;2023-03-15T06:42:14;100132.34;;;3.35;75.36
12536;BME280;6334;48.696;2.114;2023-03-15T06:44:45;100134.97;;;3.86;73.78
12536;BME280;6334;48.696;2.114;2023-03-15T06:47:16;100130.30;;;4.18;75.84
12536;BME280;6334;48.696;2.114;2023-03-15T06:49:47;100138.03;;;3.91;74.03
12536;BME280;6334;48.696;2.114;2023-03-15T06:52:17;100131.83;;;3.95;73.95
12536;BME280;6334;48.696;2.114;2023-03-15T06:54:48;100135.54;;;4.21;73.31
12536;BME280;6334;48.696;2.114;2023-03-15T06:57:19;100131.13;;;3.82;73.59
12536;BME280;6334;48.696;2.114;2023-03-15T06:59:50;100137.00;;;3.99;73.78
12536;BME280;6334;48.696;2.114;2023-03-15T07:02:20;100138.45;;;3.64;75.47
12536;BME280;6334;48.696;2.114;2023-03-15T07:04:51;100133.72;;;3.80;75.00
12536;BME280;6334;48.696;2.114;2023-03-15T07:07:21;100138.41;;;3.89;74.36
12536;BME280;6334;48.696;2.114;2023-03-15T07:09:52;100145.73;;;3.79;74.61
12536;BME280;6334;48.696;2.114;2023-03-15T07:12:22;100147.01;;;4.17;74.27
12536;BME280;6334;48.696;2.114;2023-03-15T07:14:53;100149.22;;;3.91;74.87
12536;BME280;6334;48.696;2.114;2023-03-15T07:17:23;100147.55;;;3.80;75.03
12536;BME280;6334;48.696;2.114;2023-03-15T07:19:54;100155.31;;;3.91;75.26
12536;BME280;6334;48.696;2.114;2023-03-15T07:22:24;100163.77;;;3.86;75.40
12536;BME280;6334;48.696;2.114;2023-03-15T07:24:54;100161.55;;;4.35;74.23
12536;BME280;6334;48.696;2.114;2023-03-15T07:27:25;100162.87;;;4.21;75.13
12536;BME280;6334;48.696;2.114;2023-03-15T07:29:55;100169.67;;;4.13;74.89
12536;BME280;6334;48.696;2.114;2023-03-15T07:32:26;100174.11;;;3.94;75.84
12536;BME280;6334;48.696;2.114;2023-03-15T07:34:56;100175.72;;;4.00;76.03
12536;BME280;6334;48.696;2.114;2023-03-15T07:37:27;100176.72;;;4.13;76.35
12536;BME280;6334;48.696;2.114;2023-03-15T07:39:57;100177.70;;;4.22;76.05
12536;BME280;6334;48.696;2.114;2023-03-15T07:42:28;100187.27;;;4.37;75.26
12536;BME280;6334;48.696;2.114;2023-03-15T07:44:58;100196.64;;;3.97;77.08
12536;BME280;6334;48.696;2.114;2023-03-15T07:47:29;100172.06;;;4.52;74.46
12536;BME280;6334;48.696;2.114;2023-03-15T07:49:59;100198.73;;;4.83;74.54
12536;BME280;6334;48.696;2.114;2023-03-15T07:52:29;100207.01;;;4.37;76.09
12536;BME280;6334;48.696;2.114;2023-03-15T07:55:00;100208.59;;;4.53;75.99
12536;BME280;6334;48.696;2.114;2023-03-15T07:57:30;100210.16;;;4.82;75.23
12536;BME280;6334;48.696;2.114;2023-03-15T08:00:01;100207.38;;;4.78;75.61
12536;BME280;6334;48.696;2.114;2023-03-15T08:02:33;100212.19;;;4.63;76.59
12536;BME280;6334;48.696;2.114;2023-03-15T08:05:03;100209.02;;;4.84;76.72
12536;BME280;6334;48.696;2.114;2023-03-15T08:07:34;100199.22;;;5.16;74.72
12536;BME280;6334;48.696;2.114;2023-03-15T08:10:04;100203.63;;;4.93;76.12
12536;BME280;6334;48.696;2.114;2023-03-15T08:12:34;100206.91;;;5.09;75.62
12536;BME280;6334;48.696;2.114;2023-03-15T08:15:05;100216.78;;;5.22;75.51
12536;BME280;6334;48.696;2.114;2023-03-15T08:17:36;100221.94;;;5.38;74.72
12536;BME280;6334;48.696;2.114;2023-03-15T08:20:07;100224.67;;;5.53;74.60
12536;BME280;6334;48.696;2.114;2023-03-15T08:22:39;100222.27;;;5.16;76.15
12536;BME280;6334;48.696;2.114;2023-03-15T08:25:12;100226.97;;;5.38;76.14
12536;BME280;6334;48.696;2.114;2023-03-15T08:27:42;100223.22;;;5.21;76.78
12536;BME280;6334;48.696;2.114;2023-03-15T08:30:13;100226.07;;;5.45;75.87
12536;BME280;6334;48.696;2.114;2023-03-15T08:32:44;100225.84;;;5.67;75.91
12536;BME280;6334;48.696;2.114;2023-03-15T08:35:15;100229.05;;;5.53;76.10
12536;BME280;6334;48.696;2.114;2023-03-15T08:37:44;100228.65;;;5.39;76.25
12536;BME280;6334;48.696;2.114;2023-03-15T08:40:16;100236.94;;;5.71;75.34
12536;BME280;6334;48.696;2.114;2023-03-15T08:42:51;100235.67;;;5.62;76.35
12536;BME280;6334;48.696;2.114;2023-03-15T08:45:25;100236.45;;;5.66;76.26
12536;BME280;6334;48.696;2.114;2023-03-15T08:47:55;100237.43;;;6.19;73.82
12536;BME280;6334;48.696;2.114;2023-03-15T08:50:26;100241.78;;;5.69;76.27
12536;BME280;6334;48.696;2.114;2023-03-15T08:52:56;100239.69;;;5.72;76.44
12536;BME280;6334;48.696;2.114;2023-03-15T08:55:26;100244.40;;;6.03;75.02
12536;BME280;6334;48.696;2.114;2023-03-15T08:57:58;100247.70;;;6.10;75.38
12536;BME280;6334;48.696;2.114;2023-03-15T09:00:28;100237.32;;;6.24;74.86
12536;BME280;6334;48.696;2.114;2023-03-15T09:02:59;100245.67;;;6.26;74.40
12536;BME280;6334;48.696;2.114;2023-03-15T09:05:30;100248.69;;;6.38;74.52
12536;BME280;6334;48.696;2.114;2023-03-15T09:08:01;100250.55;;;6.44;75.45
12536;BME280;6334;48.696;2.114;2023-03-15T09:10:31;100259.11;;;6.41;74.95
12536;BME280;6334;48.696;2.114;2023-03-15T09:13:02;100263.33;;;6.50;74.77
12536;BME280;6334;48.696;2.114;2023-03-15T09:15:32;100258.05;;;6.72;74.25
12536;BME280;6334;48.696;2.114;2023-03-15T09:18:03;100257.41;;;6.65;73.11
12536;BME280;6334;48.696;2.114;2023-03-15T09:20:33;100257.28;;;6.83;72.07
12536;BME280;6334;48.696;2.114;2023-03-15T09:23:04;100262.83;;;7.24;70.96
12536;BME280;6334;48.696;2.114;2023-03-15T09:25:34;100262.43;;;6.86;72.87
12536;BME280;6334;48.696;2.114;2023-03-15T09:28:05;100268.19;;;6.79;72.90
12536;BME280;6334;48.696;2.114;2023-03-15T09:30:36;100267.15;;;7.15;71.84
12536;BME280;6334;48.696;2.114;2023-03-15T09:33:06;100266.44;;;7.05;71.79
12536;BME280;6334;48.696;2.114;2023-03-15T09:35:37;100270.23;;;7.45;71.42
12536;BME280;6334;48.696;2.114;2023-03-15T09:38:08;100267.64;;;7.44;71.97
12536;BME280;6334;48.696;2.114;2023-03-15T09:40:40;100267.94;;;7.37;71.23
12536;BME280;6334;48.696;2.114;2023-03-15T09:43:22;100264.13;;;7.60;71.42
12536;BME280;6334;48.696;2.114;2023-03-15T09:45:59;100260.66;;;7.59;71.96
12536;BME280;6334;48.696;2.114;2023-03-15T09:48:49;100262.58;;;7.61;71.55
12536;BME280;6334;48.696;2.114;2023-03-15T09:51:47;100258.08;;;7.56;71.96
12536;BME280;6334;48.696;2.114;2023-03-15T09:54:17;100256.78;;;7.61;72.09
12536;BME280;6334;48.696;2.114;2023-03-15T09:56:59;100240.36;;;7.56;71.79
12536;BME280;6334;48.696;2.114;2023-03-15T09:59:40;100258.89;;;7.72;72.35
12536;BME280;6334;48.696;2.114;2023-03-15T10:02:24;100254.92;;;7.52;72.54
12536;BME280;6334;48.696;2.114;2023-03-15T10:05:11;100259.20;;;7.67;71.76
12536;BME280;6334;48.696;2.114;2023-03-15T10:07:25;100256.79;;;7.97;72.00
12536;BME280;6334;48.696;2.114;2023-03-15T10:09:56;100259.33;;;7.84;72.13
12536;BME280;6334;48.696;2.114;2023-03-15T10:12:38;100254.75;;;7.72;72.33
12536;BME280;6334;48.696;2.114;2023-03-15T10:18:04;100262.44;;;7.99;71.52
12536;BME280;6334;48.696;2.114;2023-03-15T10:20:32;100254.23;;;7.93;70.65
12536;BME280;6334;48.696;2.114;2023-03-15T10:23:22;100255.61;;;8.32;69.68
12536;BME280;6334;48.696;2.114;2023-03-15T10:25:49;100253.33;;;7.96;71.30
12536;BME280;6334;48.696;2.114;2023-03-15T10:28:38;100255.14;;;7.99;69.56
12536;BME280;6334;48.696;2.114;2023-03-15T10:30:53;100253.42;;;8.47;67.47
12536;BME280;6334;48.696;2.114;2023-03-15T10:33:36;100257.36;;;8.37;68.48
12536;BME280;6334;48.696;2.114;2023-03-15T10:36:18;100253.43;;;8.05;69.83
12536;BME280;6334;48.696;2.114;2023-03-15T10:38:46;100256.81;;;8.09;70.15
12536;BME280;6334;48.696;2.114;2023-03-15T10:41:41;100254.00;;;8.08;68.94
12536;BME280;6334;48.696;2.114;2023-03-15T10:44:25;100257.36;;;8.22;69.01
12536;BME280;6334;48.696;2.114;2023-03-15T10:47:03;100252.43;;;8.16;68.78
12536;BME280;6334;48.696;2.114;2023-03-15T10:49:37;100249.88;;;8.19;69.44
12536;BME280;6334;48.696;2.114;2023-03-15T10:52:31;100236.01;;;8.56;68.34
12536;BME280;6334;48.696;2.114;2023-03-15T10:54:37;100247.03;;;9.03;67.69
12536;BME280;6334;48.696;2.114;2023-03-15T10:57:14;100248.37;;;8.52;67.85
12536;BME280;6334;48.696;2.114;2023-03-15T10:59:57;100247.23;;;8.99;65.44
12536;BME280;6334;48.696;2.114;2023-03-15T11:02:25;100250.66;;;8.76;65.63
12536;BME280;6334;48.696;2.114;2023-03-15T11:05:03;100250.63;;;8.93;64.79
12536;BME280;6334;48.696;2.114;2023-03-15T11:07:33;100251.92;;;8.69;65.78
12536;BME280;6334;48.696;2.114;2023-03-15T11:10:03;100258.23;;;8.52;67.19
12536;BME280;6334;48.696;2.114;2023-03-15T11:12:33;100254.47;;;8.66;65.99
12536;BME280;6334;48.696;2.114;2023-03-15T11:15:10;100252.16;;;8.66;65.59
12536;BME280;6334;48.696;2.114;2023-03-15T11:17:34;100257.73;;;8.60;64.53
12536;BME280;6334;48.696;2.114;2023-03-15T11:20:31;100252.83;;;8.65;64.50
12536;BME280;6334;48.696;2.114;2023-03-15T11:22:38;100242.72;;;9.02;60.81
12536;BME280;6334;48.696;2.114;2023-03-15T11:25:13;100241.24;;;9.03;57.93
12536;BME280;6334;48.696;2.114;2023-03-15T11:27:43;100237.98;;;9.06;59.38
12536;BME280;6334;48.696;2.114;2023-03-15T11:30:17;100234.47;;;8.85;57.78
12536;BME280;6334;48.696;2.114;2023-03-15T11:32:47;100238.46;;;8.79;60.31
12536;BME280;6334;48.696;2.114;2023-03-15T11:35:34;100225.52;;;9.18;59.28
12536;BME280;6334;48.696;2.114;2023-03-15T11:38:03;100241.61;;;8.84;58.90
12536;BME280;6334;48.696;2.114;2023-03-15T11:40:33;100241.95;;;8.63;60.06
12536;BME280;6334;48.696;2.114;2023-03-15T11:43:19;100244.59;;;8.78;57.41
12536;BME280;6334;48.696;2.114;2023-03-15T11:45:58;100242.80;;;9.14;59.98
12536;BME280;6334;48.696;2.114;2023-03-15T11:48:27;100247.89;;;9.27;59.60
12536;BME280;6334;48.696;2.114;2023-03-15T11:50:59;100244.97;;;9.32;58.41
12536;BME280;6334;48.696;2.114;2023-03-15T11:53:36;100246.98;;;9.49;56.63
12536;BME280;6334;48.696;2.114;2023-03-15T11:56:20;100242.73;;;9.72;57.71
12536;BME280;6334;48.696;2.114;2023-03-15T11:59:07;100241.70;;;9.78;54.41
12536;BME280;6334;48.696;2.114;2023-03-15T12:01:41;100238.83;;;9.85;55.77
12536;BME280;6334;48.696;2.114;2023-03-15T12:04:37;100234.39;;;9.40;56.21
12536;BME280;6334;48.696;2.114;2023-03-15T12:07:01;100233.53;;;9.46;55.12
12536;BME280;6334;48.696;2.114;2023-03-15T12:12:04;100241.70;;;9.60;57.17
12536;BME280;6334;48.696;2.114;2023-03-15T12:14:35;100243.47;;;9.89;53.10
12536;BME280;6334;48.696;2.114;2023-03-15T12:19:59;100235.10;;;9.50;55.68
12536;BME280;6334;48.696;2.114;2023-03-15T12:22:33;100243.12;;;9.16;54.57
12536;BME280;6334;48.696;2.114;2023-03-15T12:27:53;100227.56;;;9.42;55.95
12536;BME280;6334;48.696;2.114;2023-03-15T12:30:41;100220.77;;;9.46;54.14
12536;BME280;6334;48.696;2.114;2023-03-15T12:32:55;100226.41;;;9.62;55.02
12536;BME280;6334;48.696;2.114;2023-03-15T12:35:32;100221.23;;;9.63;56.41
12536;BME280;6334;48.696;2.114;2023-03-15T12:37:59;100212.45;;;9.26;54.08
12536;BME280;6334;48.696;2.114;2023-03-15T12:40:41;100205.87;;;9.50;55.91
12536;BME280;6334;48.696;2.114;2023-03-15T12:43:09;100215.50;;;9.84;54.95
12536;BME280;6334;48.696;2.114;2023-03-15T12:45:40;100216.37;;;9.73;53.94
12536;BME280;6334;48.696;2.114;2023-03-15T12:55:54;100215.33;;;9.81;55.23
12536;BME280;6334;48.696;2.114;2023-03-15T12:58:28;100217.09;;;9.90;53.89
12536;BME280;6334;48.696;2.114;2023-03-15T13:00:58;100211.47;;;9.76;54.02
12536;BME280;6334;48.696;2.114;2023-03-15T13:03:28;100213.11;;;9.89;54.90
12536;BME280;6334;48.696;2.114;2023-03-15T13:11:39;100194.15;;;9.67;53.24
12536;BME280;6334;48.696;2.114;2023-03-15T13:14:32;100193.74;;;9.93;54.84
12536;BME280;6334;48.696;2.114;2023-03-15T13:23:03;100192.42;;;10.24;56.12
12536;BME280;6334;48.696;2.114;2023-03-15T13:25:35;100187.24;;;10.15;55.61
12536;BME280;6334;48.696;2.114;2023-03-15T13:28:23;100188.44;;;10.38;64.00
12536;BME280;6334;48.696;2.114;2023-03-15T13:30:52;100185.70;;;10.62;57.00
12536;BME280;6334;48.696;2.114;2023-03-15T13:33:31;100163.16;;;9.69;51.67
12536;BME280;6334;48.696;2.114;2023-03-15T13:36:05;100175.37;;;9.79;53.26
12536;BME280;6334;48.696;2.114;2023-03-15T13:43:46;100180.87;;;10.16;51.71
12536;BME280;6334;48.696;2.114;2023-03-15T13:46:17;100185.03;;;10.12;52.96
12536;BME280;6334;48.696;2.114;2023-03-15T13:48:55;100184.81;;;10.30;53.18
12536;BME280;6334;48.696;2.114;2023-03-15T13:51:29;100183.02;;;9.83;52.92
12536;BME280;6334;48.696;2.114;2023-03-15T13:53:59;100166.44;;;9.74;54.63
12536;BME280;6334;48.696;2.114;2023-03-15T13:56:34;100181.34;;;10.17;51.63
12536;BME280;6334;48.696;2.114;2023-03-15T13:59:03;100178.93;;;9.85;54.67
12536;BME280;6334;48.696;2.114;2023-03-15T14:01:36;100171.64;;;9.82;54.53
12536;BME280;6334;48.696;2.114;2023-03-15T14:04:12;100176.56;;;10.02;54.78
12536;BME280;6334;48.696;2.114;2023-03-15T14:06:36;100170.05;;;10.06;53.93
12536;BME280;6334;48.696;2.114;2023-03-15T14:09:08;100174.64;;;10.00;53.32
12536;BME280;6334;48.696;2.114;2023-03-15T14:11:37;100176.00;;;9.72;53.96
12536;BME280;6334;48.696;2.114;2023-03-15T14:14:18;100177.47;;;9.79;52.46
12536;BME280;6334;48.696;2.114;2023-03-15T14:16:44;100177.41;;;10.00;53.19
12536;BME280;6334;48.696;2.114;2023-03-15T14:19:16;100177.41;;;10.00;54.82